createdAt,value
2022-10-08T00:02:38.456Z,92486.28
2022-10-08T00:05:26.045Z,92494.25
2022-10-08T00:08:13.592Z,92486.84
2022-10-08T00:11:01.151Z,92485.06
2022-10-08T00:13:48.696Z,92478.72
2022-10-08T00:16:36.421Z,92482.66
2022-10-08T00:19:26.029Z,92480.78
2022-10-08T00:22:13.612Z,92486.03
2022-10-08T00:25:01.182Z,92486.59
2022-10-08T00:27:48.748Z,92485.47
2022-10-08T00:30:36.311Z,92489.34
2022-10-08T00:33:23.882Z,92483.19
2022-10-08T00:36:11.447Z,92478.16
2022-10-08T00:38:58.985Z,92475.91
2022-10-08T00:41:46.564Z,92476.28
2022-10-08T00:44:34.109Z,92480.88
2022-10-08T00:47:21.673Z,92471.78
2022-10-08T00:50:09.213Z,92468.59
2022-10-08T00:52:56.766Z,92466.25
2022-10-08T00:55:44.330Z,92471.03
2022-10-08T00:58:31.890Z,92465.16
2022-10-08T01:01:19.482Z,92462.25
2022-10-08T01:04:07.083Z,92460.09
2022-10-08T01:06:54.650Z,92457.91
2022-10-08T01:09:42.197Z,92462.03
2022-10-08T01:12:29.765Z,92458.97
2022-10-08T01:15:17.301Z,92457.84
2022-10-08T01:18:04.909Z,92458.47
2022-10-08T01:20:52.461Z,92459.34
2022-10-08T01:23:40.273Z,92448.19
2022-10-08T01:26:27.812Z,92449.53
2022-10-08T01:29:15.482Z,92446.75
2022-10-08T01:32:03.125Z,92448.72
2022-10-08T01:34:50.779Z,92436.66
2022-10-08T01:37:38.336Z,92439.81
2022-10-08T01:40:25.914Z,92433.03
2022-10-08T01:43:13.465Z,92439.22
2022-10-08T01:46:01.110Z,92431.13
2022-10-08T01:48:48.686Z,92429.94
2022-10-08T01:51:36.239Z,92435.75
2022-10-08T01:54:23.774Z,92432.25
2022-10-08T01:57:11.353Z,92428.63
2022-10-08T01:59:59.964Z,92431.56
2022-10-08T02:02:47.712Z,92434.59
2022-10-08T02:05:35.487Z,92433.09
2022-10-08T02:08:23.046Z,92429.41
2022-10-08T02:11:10.629Z,92425.84
2022-10-08T02:13:58.361Z,92422.59
2022-10-08T02:16:45.934Z,92426.75
2022-10-08T02:19:33.574Z,92422.59
2022-10-08T02:22:21.104Z,92424.63
2022-10-08T02:25:08.662Z,92419.28
2022-10-08T02:27:56.209Z,92417.72
2022-10-08T02:30:43.800Z,92423.78
2022-10-08T02:33:31.357Z,92416.22
2022-10-08T02:36:18.919Z,92411.22
2022-10-08T02:39:06.482Z,92412.97
2022-10-08T02:41:54.055Z,92410.19
2022-10-08T02:44:41.600Z,92407.78
2022-10-08T02:47:29.184Z,92401.78
2022-10-08T02:50:16.730Z,92403.69
2022-10-08T02:53:04.288Z,92403.78
2022-10-08T02:55:51.851Z,92402.69
2022-10-08T02:58:39.484Z,92404.66
2022-10-08T03:01:27.074Z,92404.91
2022-10-08T03:04:14.657Z,92407.16
2022-10-08T03:07:02.219Z,92402.19
2022-10-08T03:09:49.799Z,92410.50
2022-10-08T03:12:37.354Z,92408.84
2022-10-08T03:15:24.928Z,92413.00
2022-10-08T03:18:12.488Z,92409.25
2022-10-08T03:21:00.143Z,92407.91
2022-10-08T03:23:47.692Z,92413.88
2022-10-08T03:26:35.359Z,92419.81
2022-10-08T03:29:24.906Z,92422.03
2022-10-08T03:32:12.554Z,92426.56
2022-10-08T03:35:02.101Z,92418.16
2022-10-08T03:37:49.671Z,92414.28
2022-10-08T03:40:37.219Z,92420.31
2022-10-08T03:43:24.791Z,92414.47
2022-10-08T03:46:12.427Z,92418.00
2022-10-08T03:49:00.009Z,92421.16
2022-10-08T03:51:47.544Z,92421.69
2022-10-08T03:54:35.096Z,92417.03
2022-10-08T03:57:22.665Z,92417.66
2022-10-08T04:00:10.241Z,92417.56
2022-10-08T04:02:57.853Z,92421.31
2022-10-08T04:05:45.439Z,92418.69
2022-10-08T04:08:32.993Z,92425.03
2022-10-08T04:11:20.557Z,92421.78
2022-10-08T04:14:08.101Z,92424.31
2022-10-08T04:16:55.659Z,92423.66
2022-10-08T04:19:43.209Z,92428.66
2022-10-08T04:22:30.789Z,92431.28
2022-10-08T04:25:18.365Z,92433.19
2022-10-08T04:28:06.033Z,92425.63
2022-10-08T04:30:53.651Z,92431.69
2022-10-08T04:33:43.330Z,92426.63
2022-10-08T04:36:30.884Z,92430.41
2022-10-08T04:39:18.462Z,92414.78
2022-10-08T04:42:05.994Z,92421.22
2022-10-08T04:44:54.529Z,92415.09
2022-10-08T04:47:42.079Z,92416.63
2022-10-08T04:50:29.646Z,92418.78
2022-10-08T04:53:17.181Z,92413.38
2022-10-08T04:56:04.754Z,92411.88
2022-10-08T04:58:52.288Z,92418.47
2022-10-08T05:01:39.934Z,92417.06
2022-10-08T05:04:27.503Z,92420.84
2022-10-08T05:07:15.070Z,92425.03
2022-10-08T05:10:02.610Z,92423.97
2022-10-08T05:12:50.236Z,92417.88
2022-10-08T05:15:37.861Z,92423.81
2022-10-08T05:18:25.446Z,92420.91
2022-10-08T05:21:13.027Z,92423.72
2022-10-08T05:24:00.595Z,92418.28
2022-10-08T05:27:03.442Z,92427.78
2022-10-08T05:29:51.004Z,92422.84
2022-10-08T05:32:38.595Z,92427.13
2022-10-08T05:35:26.135Z,92422.22
2022-10-08T05:38:15.798Z,92420.91
2022-10-08T05:41:03.344Z,92423.22
2022-10-08T05:43:52.918Z,92418.88
2022-10-08T05:46:40.569Z,92422.31
2022-10-08T05:49:28.195Z,92426.97
2022-10-08T05:52:15.767Z,92426.00
2022-10-08T05:55:03.314Z,92428.94
2022-10-08T05:57:50.868Z,92428.94
2022-10-08T06:00:38.396Z,92436.56
2022-10-08T06:03:25.958Z,92440.31
2022-10-08T06:06:13.530Z,92434.50
2022-10-08T06:09:01.096Z,92439.03
2022-10-08T06:11:48.648Z,92425.63
2022-10-08T06:14:36.225Z,92436.00
2022-10-08T06:17:23.764Z,92424.53
2022-10-08T06:20:11.318Z,92427.31
2022-10-08T06:22:58.895Z,92428.63
2022-10-08T06:25:46.426Z,92425.94
2022-10-08T06:28:34.072Z,92428.63
2022-10-08T06:31:21.691Z,92431.66
2022-10-08T06:34:09.412Z,92432.59
2022-10-08T06:36:56.956Z,92440.69
2022-10-08T06:39:48.316Z,92438.94
2022-10-08T06:42:36.249Z,92441.84
2022-10-08T06:45:25.777Z,92447.78
2022-10-08T06:48:13.327Z,92449.56
2022-10-08T06:51:00.872Z,92442.84
2022-10-08T06:53:48.427Z,92447.72
2022-10-08T06:56:36.123Z,92455.03
2022-10-08T06:59:23.882Z,92452.03
2022-10-08T07:02:11.515Z,92456.00
2022-10-08T07:04:59.160Z,92459.75
2022-10-08T07:07:46.712Z,92464.03
2022-10-08T07:10:34.296Z,92453.22
2022-10-08T07:13:21.855Z,92464.22
2022-10-08T07:16:09.489Z,92464.97
2022-10-08T07:18:57.053Z,92470.50
2022-10-08T07:21:44.613Z,92480.88
2022-10-08T07:24:32.152Z,92476.16
2022-10-08T07:27:19.733Z,92476.53
2022-10-08T07:30:07.284Z,92492.13
2022-10-08T07:32:54.836Z,92491.56
2022-10-08T07:35:42.374Z,92498.47
2022-10-08T07:38:29.926Z,92508.00
2022-10-08T07:41:17.605Z,92514.16
2022-10-08T07:44:05.139Z,92516.13
2022-10-08T07:46:52.817Z,92524.13
2022-10-08T07:49:40.367Z,92532.59
2022-10-08T07:52:27.929Z,92536.34
2022-10-08T07:55:15.488Z,92544.34
2022-10-08T07:58:03.063Z,92543.19
2022-10-08T08:00:50.704Z,92532.91
2022-10-08T08:03:38.654Z,92535.88
2022-10-08T08:06:26.227Z,92539.97
2022-10-08T08:09:13.801Z,92542.19
2022-10-08T08:12:01.386Z,92547.50
2022-10-08T08:14:48.931Z,92546.41
2022-10-08T08:17:36.511Z,92548.44
2022-10-08T08:20:24.152Z,92546.19
2022-10-08T08:23:11.754Z,92540.53
2022-10-08T08:25:59.323Z,92529.38
2022-10-08T08:28:46.943Z,92534.53
2022-10-08T08:31:34.603Z,92540.47
2022-10-08T08:34:22.222Z,92540.34
2022-10-08T08:37:09.779Z,92544.41
2022-10-08T08:39:57.380Z,92539.44
2022-10-08T08:42:45.508Z,92546.69
2022-10-08T08:45:48.581Z,92535.22
2022-10-08T08:48:36.271Z,92547.41
2022-10-08T08:51:23.843Z,92552.91
2022-10-08T08:54:11.381Z,92554.69
2022-10-08T08:56:59.032Z,92552.72
2022-10-08T08:59:48.569Z,92556.78
2022-10-08T09:02:36.227Z,92564.19
2022-10-08T09:05:25.777Z,92559.59
2022-10-08T09:08:13.363Z,92560.63
2022-10-08T09:11:00.920Z,92559.91
2022-10-08T09:13:48.457Z,92560.13
2022-10-08T09:16:36.099Z,92561.59
2022-10-08T09:19:23.681Z,92556.44
2022-10-08T09:22:11.246Z,92553.47
2022-10-08T09:24:58.781Z,92559.50
2022-10-08T09:27:46.354Z,92555.25
2022-10-08T09:30:33.990Z,92554.53
2022-10-08T09:33:21.682Z,92561.81
2022-10-08T09:36:09.227Z,92554.59
2022-10-08T09:38:56.797Z,92564.25
2022-10-08T09:41:44.346Z,92561.91
2022-10-08T09:44:31.894Z,92563.47
2022-10-08T09:47:19.458Z,92559.88
2022-10-08T09:50:07.012Z,92561.13
2022-10-08T09:52:54.675Z,92555.47
2022-10-08T09:55:44.207Z,92558.31
2022-10-08T09:58:31.777Z,92564.56
2022-10-08T10:01:19.550Z,92568.13
2022-10-08T10:04:07.226Z,92566.16
2022-10-08T10:06:54.820Z,92568.97
2022-10-08T10:09:42.378Z,92572.63
2022-10-08T10:12:29.970Z,92569.38
2022-10-08T10:15:17.549Z,92564.00
2022-10-08T10:18:05.105Z,92574.28
2022-10-08T10:20:52.655Z,92570.03
2022-10-08T10:23:42.176Z,92568.34
2022-10-08T10:26:29.760Z,92567.66
2022-10-08T10:29:17.303Z,92566.06
2022-10-08T10:32:04.835Z,92568.03
2022-10-08T10:34:52.410Z,92564.94
2022-10-08T10:37:39.997Z,92563.34
2022-10-08T10:40:27.553Z,92568.19
2022-10-08T10:43:15.086Z,92570.09
2022-10-08T10:46:02.722Z,92567.28
2022-10-08T10:48:50.273Z,92567.81
2022-10-08T10:51:37.847Z,92568.19
2022-10-08T10:54:25.382Z,92565.41
2022-10-08T10:57:12.951Z,92558.56
2022-10-08T11:00:00.488Z,92562.97
2022-10-08T11:02:48.432Z,92554.81
2022-10-08T11:05:36.228Z,92554.91
2022-10-08T11:08:23.796Z,92559.56
2022-10-08T11:11:11.331Z,92551.53
2022-10-08T11:13:58.891Z,92547.19
2022-10-08T11:16:46.453Z,92547.56
2022-10-08T11:19:34.006Z,92542.00
2022-10-08T11:22:21.560Z,92544.94
2022-10-08T11:25:09.121Z,92541.84
2022-10-08T11:27:56.679Z,92537.41
2022-10-08T11:30:44.297Z,92534.38
2022-10-08T11:33:31.884Z,92537.53
2022-10-08T11:36:19.424Z,92542.50
2022-10-08T11:39:06.977Z,92534.66
2022-10-08T11:41:54.512Z,92535.75
2022-10-08T11:44:42.167Z,92529.50
2022-10-08T11:47:29.712Z,92537.03
2022-10-08T11:50:17.278Z,92522.47
2022-10-08T11:53:04.823Z,92525.81
2022-10-08T11:55:52.382Z,92523.31
2022-10-08T11:58:39.941Z,92527.63
2022-10-08T12:01:27.491Z,92527.13
2022-10-08T12:04:15.020Z,92510.06
2022-10-08T12:07:02.694Z,92509.69
2022-10-08T12:09:50.264Z,92504.44
2022-10-08T12:12:37.841Z,92505.09
2022-10-08T12:15:25.408Z,92499.38
2022-10-08T12:18:13.068Z,92500.50
2022-10-08T12:21:00.623Z,92503.41
2022-10-08T12:23:48.188Z,92495.22
2022-10-08T12:26:35.725Z,92498.13
2022-10-08T12:29:23.281Z,92494.47
2022-10-08T12:32:10.821Z,92495.31
2022-10-08T12:34:58.376Z,92491.38
2022-10-08T12:37:46.275Z,92489.94
2022-10-08T12:40:34.086Z,92484.59
2022-10-08T12:43:21.637Z,92488.78
2022-10-08T12:46:09.258Z,92481.81
2022-10-08T12:48:56.823Z,92488.63
2022-10-08T12:51:44.380Z,92480.75
2022-10-08T12:54:31.908Z,92486.91
2022-10-08T12:57:19.476Z,92486.03
2022-10-08T13:00:07.018Z,92490.13
2022-10-08T13:02:54.604Z,92486.16
2022-10-08T13:05:42.162Z,92488.78
2022-10-08T13:08:29.717Z,92490.03
2022-10-08T13:11:17.252Z,92481.97
2022-10-08T13:14:04.805Z,92485.84
2022-10-08T13:16:52.339Z,92478.47
2022-10-08T13:19:40.008Z,92483.00
2022-10-08T13:22:27.549Z,92484.59
2022-10-08T13:25:15.201Z,92491.72
2022-10-08T13:28:04.754Z,92498.84
2022-10-08T13:30:52.333Z,92502.94
2022-10-08T13:33:39.916Z,92495.50
2022-10-08T13:36:27.503Z,92499.34
2022-10-08T13:39:15.050Z,92492.69
2022-10-08T13:42:02.611Z,92487.75
2022-10-08T13:44:52.143Z,92493.31
2022-10-08T13:47:39.720Z,92498.28
2022-10-08T13:50:27.301Z,92494.47
2022-10-08T13:53:14.873Z,92494.25
2022-10-08T13:56:02.451Z,92493.56
2022-10-08T13:58:50.009Z,92486.09
2022-10-08T14:01:37.647Z,92492.16
2022-10-08T14:04:25.224Z,92494.69
2022-10-08T14:07:12.795Z,92504.88
2022-10-08T14:10:00.348Z,92503.72
2022-10-08T14:12:47.924Z,92492.00
2022-10-08T14:15:35.474Z,92498.03
2022-10-08T14:18:23.047Z,92497.63
2022-10-08T14:21:10.606Z,92493.47
2022-10-08T14:23:58.168Z,92493.88
2022-10-08T14:26:45.701Z,92503.66
2022-10-08T14:29:33.271Z,92494.63
2022-10-08T14:32:20.849Z,92491.63
2022-10-08T14:35:08.393Z,92493.53
2022-10-08T14:37:56.076Z,92484.34
2022-10-08T14:40:43.630Z,92495.50
2022-10-08T14:43:31.199Z,92491.25
2022-10-08T14:46:18.831Z,92488.03
2022-10-08T14:49:06.459Z,92491.16
2022-10-08T14:51:54.025Z,92496.00
2022-10-08T14:54:41.610Z,92493.41
2022-10-08T14:57:29.183Z,92497.09
2022-10-08T15:00:16.751Z,92496.25
2022-10-08T15:03:04.304Z,92490.09
2022-10-08T15:05:51.898Z,92485.91
2022-10-08T15:08:39.474Z,92488.91
2022-10-08T15:11:27.062Z,92486.69
2022-10-08T15:14:14.619Z,92488.22
2022-10-08T15:17:02.218Z,92485.81
2022-10-08T15:19:49.788Z,92493.06
2022-10-08T15:22:37.343Z,92484.66
2022-10-08T15:25:24.899Z,92496.31
2022-10-08T15:28:12.488Z,92494.16
2022-10-08T15:31:00.053Z,92489.13
2022-10-08T15:33:47.629Z,92487.84
2022-10-08T15:36:35.191Z,92489.31
2022-10-08T15:39:22.753Z,92496.69
2022-10-08T15:42:10.408Z,92502.53
2022-10-08T15:44:57.962Z,92493.59
2022-10-08T15:47:45.536Z,92496.38
2022-10-08T15:50:33.077Z,92487.72
2022-10-08T15:53:20.647Z,92494.31
2022-10-08T15:56:08.185Z,92497.75
2022-10-08T15:58:55.768Z,92486.03
2022-10-08T16:01:43.309Z,92492.63
2022-10-08T16:04:30.891Z,92499.13
2022-10-08T16:07:18.453Z,92494.28
2022-10-08T16:10:06.029Z,92494.66
2022-10-08T16:12:53.572Z,92486.69
2022-10-08T16:15:41.140Z,92486.22
2022-10-08T16:18:28.682Z,92492.91
2022-10-08T16:21:16.243Z,92486.78
2022-10-08T16:24:03.799Z,92496.06
2022-10-08T16:26:51.351Z,92495.63
2022-10-08T16:29:40.937Z,92492.66
2022-10-08T16:32:28.491Z,92495.63
2022-10-08T16:35:16.070Z,92492.44
2022-10-08T16:38:03.612Z,92491.50
2022-10-08T16:40:51.177Z,92492.25
2022-10-08T16:43:38.712Z,92492.72
2022-10-08T16:46:26.444Z,92493.94
2022-10-08T16:49:21.067Z,92490.06
2022-10-08T16:52:11.553Z,92494.00
2022-10-08T16:54:59.086Z,92496.19
2022-10-08T16:57:51.508Z,92496.03
2022-10-08T17:00:39.328Z,92499.75
2022-10-08T17:03:26.888Z,92501.19
2022-10-08T17:06:14.436Z,92508.06
2022-10-08T17:09:01.988Z,92511.16
2022-10-08T17:11:49.527Z,92514.81
2022-10-08T17:14:37.085Z,92511.41
2022-10-08T17:17:24.616Z,92508.81
2022-10-08T17:20:12.176Z,92518.63
2022-10-08T17:22:59.734Z,92511.16
2022-10-08T17:25:47.307Z,92522.63
2022-10-08T17:28:34.914Z,92521.47
2022-10-08T17:31:22.678Z,92523.13
2022-10-08T17:34:10.277Z,92524.91
2022-10-08T17:36:57.935Z,92524.91
2022-10-08T17:39:45.471Z,92525.56
2022-10-08T17:42:33.015Z,92523.34
2022-10-08T17:45:20.652Z,92521.59
2022-10-08T17:48:08.209Z,92528.41
2022-10-08T17:50:55.787Z,92536.91
2022-10-08T17:53:43.316Z,92535.78
2022-10-08T17:56:30.891Z,92533.16
2022-10-08T17:59:18.439Z,92532.41
2022-10-08T18:02:06.043Z,92531.63
2022-10-08T18:04:53.615Z,92532.59
2022-10-08T18:07:41.188Z,92532.88
2022-10-08T18:10:28.723Z,92542.56
2022-10-08T18:13:16.298Z,92539.59
2022-10-08T18:16:03.916Z,92539.94
2022-10-08T18:18:51.522Z,92544.94
2022-10-08T18:21:39.058Z,92550.06
2022-10-08T18:24:26.620Z,92543.09
2022-10-08T18:27:14.151Z,92548.31
2022-10-08T18:30:01.723Z,92543.81
2022-10-08T18:32:49.597Z,92552.25
2022-10-08T18:35:37.429Z,92549.25
2022-10-08T18:38:24.952Z,92551.38
2022-10-08T18:41:12.517Z,92554.06
2022-10-08T18:44:00.087Z,92547.16
2022-10-08T18:46:47.760Z,92538.41
2022-10-08T18:49:35.381Z,92538.66
2022-10-08T18:52:22.936Z,92544.19
2022-10-08T18:55:10.505Z,92541.84
2022-10-08T18:57:58.067Z,92545.28
2022-10-08T19:00:45.617Z,92538.94
2022-10-08T19:03:33.199Z,92538.81
2022-10-08T19:06:20.732Z,92535.44
2022-10-08T19:09:08.309Z,92541.41
2022-10-08T19:11:55.936Z,92546.34
2022-10-08T19:14:43.483Z,92543.22
2022-10-08T19:17:31.024Z,92547.41
2022-10-08T19:20:18.584Z,92542.84
2022-10-08T19:23:06.136Z,92546.69
2022-10-08T19:25:53.730Z,92555.78
2022-10-08T19:28:41.340Z,92543.31
2022-10-08T19:31:29.041Z,92543.47
2022-10-08T19:34:16.625Z,92546.56
2022-10-08T19:37:04.193Z,92552.84
2022-10-08T19:39:51.790Z,92549.44
2022-10-08T19:42:39.338Z,92562.69
2022-10-08T19:45:26.883Z,92561.78
2022-10-08T19:48:14.453Z,92562.75
2022-10-08T19:51:01.987Z,92549.81
2022-10-08T19:53:49.548Z,92552.13
2022-10-08T19:56:39.225Z,92560.50
2022-10-08T19:59:26.770Z,92553.38
2022-10-08T20:02:16.383Z,92551.81
2022-10-08T20:05:03.949Z,92551.66
2022-10-08T20:07:51.517Z,92567.88
2022-10-08T20:10:39.104Z,92563.34
2022-10-08T20:13:26.664Z,92555.44
2022-10-08T20:16:14.271Z,92566.88
2022-10-08T20:19:01.896Z,92560.25
2022-10-08T20:21:49.449Z,92566.28
2022-10-08T20:24:37.034Z,92558.78
2022-10-08T20:27:24.567Z,92563.72
2022-10-08T20:30:12.125Z,92562.00
2022-10-08T20:32:59.670Z,92560.94
2022-10-08T20:35:47.248Z,92564.19
2022-10-08T20:38:34.930Z,92560.50
2022-10-08T20:41:25.575Z,92560.66
2022-10-08T20:44:17.865Z,92554.09
2022-10-08T20:47:05.419Z,92560.06
2022-10-08T20:49:52.992Z,92557.34
2022-10-08T20:52:40.529Z,92553.13
2022-10-08T20:55:28.087Z,92561.44
2022-10-08T20:58:15.636Z,92567.47
2022-10-08T21:01:03.207Z,92562.91
2022-10-08T21:03:50.819Z,92558.72
2022-10-08T21:06:38.369Z,92562.13
2022-10-08T21:09:25.925Z,92556.94
2022-10-08T21:12:13.480Z,92551.94
2022-10-08T21:15:01.073Z,92551.28
2022-10-08T21:17:48.668Z,92550.28
2022-10-08T21:20:36.320Z,92547.44
2022-10-08T21:23:23.877Z,92550.22
2022-10-08T21:26:11.430Z,92548.41
2022-10-08T21:28:59.002Z,92552.94
2022-10-08T21:31:46.599Z,92546.84
2022-10-08T21:34:34.181Z,92540.97
2022-10-08T21:37:21.758Z,92540.97
2022-10-08T21:40:09.287Z,92536.72
2022-10-08T21:42:56.850Z,92544.13
2022-10-08T21:45:44.451Z,92539.28
2022-10-08T21:48:32.043Z,92540.91
2022-10-08T21:51:19.591Z,92538.03
2022-10-08T21:54:07.171Z,92538.59
2022-10-08T21:56:54.707Z,92535.56
2022-10-08T21:59:42.278Z,92533.09
2022-10-08T22:02:29.883Z,92543.44
2022-10-08T22:05:17.547Z,92534.09
2022-10-08T22:08:05.099Z,92528.28
2022-10-08T22:10:52.762Z,92533.03
2022-10-08T22:13:42.310Z,92529.91
2022-10-08T22:16:29.925Z,92524.06
2022-10-08T22:19:17.554Z,92532.66
2022-10-08T22:22:05.108Z,92521.06
2022-10-08T22:24:52.660Z,92523.19
2022-10-08T22:27:40.253Z,92522.47
2022-10-08T22:30:27.810Z,92517.22
2022-10-08T22:33:15.340Z,92515.56
2022-10-08T22:36:02.905Z,92514.19
2022-10-08T22:38:50.450Z,92517.63
2022-10-08T22:41:38.019Z,92508.50
2022-10-08T22:44:25.572Z,92509.22
2022-10-08T22:47:13.118Z,92507.19
2022-10-08T22:50:00.696Z,92498.38
2022-10-08T22:52:48.468Z,92503.59
2022-10-08T22:55:36.245Z,92495.88
2022-10-08T22:58:23.785Z,92493.03
2022-10-08T23:04:43.405Z,92487.72
2022-10-08T23:07:30.942Z,92491.63
2022-10-08T23:10:18.592Z,92496.75
2022-10-08T23:13:06.138Z,92489.50
2022-10-08T23:15:53.693Z,92484.44
2022-10-08T23:18:41.240Z,92483.75
2022-10-08T23:21:28.877Z,92477.16
2022-10-08T23:24:16.417Z,92475.44
2022-10-08T23:27:08.755Z,92474.66
2022-10-08T23:29:57.104Z,92476.22
2022-10-08T23:32:44.681Z,92471.50
2022-10-08T23:35:32.233Z,92471.88
2022-10-08T23:38:19.797Z,92477.53
2022-10-08T23:41:07.333Z,92466.66
2022-10-08T23:43:54.887Z,92465.09
2022-10-08T23:46:42.419Z,92460.63
2022-10-08T23:49:31.411Z,92469.25
2022-10-08T23:52:18.963Z,92462.84
2022-10-08T23:55:06.542Z,92464.94
2022-10-08T23:57:54.102Z,92458.06
